Time;durP1;ratioP1;P1;durP2;ratioP2;P2;SDS_P1;SDS_P2;PMS_P1;PMS_P2;Temp;Humidity;BMP_temperature;BMP_pressure;BME280_temperature;BME280_humidity;BME280_pressure;Samples;Min_cycle;Max_cycle;Signal;HPM_P1;HPM_P2
2024/01/05 00:01:54;;;;;;;182.70;104.13;;;3.10;99.90;;;;;;5005389;28;20052;-76
2024/01/05 00:04:21;;;;;;;204.45;108.85;;;3.10;99.90;;;;;;4997748;28;20042;-75
2024/01/05 00:06:51;;;;;;;212.70;117.07;;;3.10;99.90;;;;;;4986041;28;20100;-74
2024/01/05 00:09:21;;;;;;;181.55;100.30;;;3.10;99.90;;;;;;5009656;28;20050;-75
2024/01/05 00:11:49;;;;;;;219.25;119.60;;;3.20;99.90;;;;;;5007463;28;20572;-76
2024/01/05 00:14:17;;;;;;;190.05;105.15;;;3.20;99.90;;;;;;4993681;28;20514;-74
2024/01/05 00:16:44;;;;;;;177.07;102.20;;;3.10;99.90;;;;;;4987335;28;20405;-76
2024/01/05 00:19:13;;;;;;;172.02;93.80;;;3.10;99.90;;;;;;5008990;28;20092;-77
2024/01/05 00:21:40;;;;;;;151.07;85.85;;;3.10;99.90;;;;;;5026949;28;20053;-76
2024/01/05 00:24:08;;;;;;;163.50;89.13;;;3.10;99.90;;;;;;4996554;28;20070;-75
2024/01/05 00:26:41;;;;;;;173.30;98.38;;;3.10;99.90;;;;;;4985602;28;20046;-76
2024/01/05 00:29:09;;;;;;;172.13;93.60;;;3.10;99.90;;;;;;4990319;28;20049;-75
2024/01/05 00:31:37;;;;;;;160.48;91.43;;;3.00;99.90;;;;;;5013266;28;20052;-76
2024/01/05 00:34:04;;;;;;;183.38;105.78;;;2.90;99.90;;;;;;4998758;28;20061;-75
2024/01/05 00:36:32;;;;;;;162.00;87.65;;;3.00;99.90;;;;;;5001737;28;20145;-76
2024/01/05 00:39:00;;;;;;;149.05;85.30;;;3.00;99.90;;;;;;4989719;28;20713;-75
2024/01/05 00:41:28;;;;;;;145.43;84.25;;;3.00;99.90;;;;;;4999331;28;20101;-76
2024/01/05 00:43:58;;;;;;;145.55;84.18;;;2.90;99.90;;;;;;4969026;28;20085;-78
2024/01/05 00:46:29;;;;;;;149.82;84.13;;;2.80;99.90;;;;;;4994062;28;20060;-78
2024/01/05 00:49:01;;;;;;;147.57;86.10;;;2.70;99.90;;;;;;5006845;28;20073;-78
2024/01/05 00:51:32;;;;;;;149.68;84.00;;;2.60;99.90;;;;;;5028027;28;20096;-77
2024/01/05 00:54:04;;;;;;;153.93;86.85;;;2.60;99.90;;;;;;5020722;28;20030;-79
2024/01/05 00:56:32;;;;;;;131.88;75.70;;;2.60;99.90;;;;;;4999183;28;20132;-77
2024/01/05 00:59:01;;;;;;;146.38;81.78;;;2.60;99.90;;;;;;5000464;28;20057;-77
2024/01/05 01:01:30;;;;;;;115.72;67.78;;;2.70;99.90;;;;;;4993011;28;20053;-77
2024/01/05 01:03:58;;;;;;;117.32;67.30;;;2.60;99.90;;;;;;5000453;28;20042;-77
2024/01/05 01:06:34;;;;;;;89.30;53.50;;;2.60;99.90;;;;;;4993573;28;20104;-76
2024/01/05 01:09:02;;;;;;;114.05;65.13;;;2.50;99.90;;;;;;5010933;28;20046;-77
2024/01/05 01:11:30;;;;;;;109.15;62.38;;;2.60;99.90;;;;;;5005419;28;20141;-77
2024/01/05 01:14:00;;;;;;;123.93;70.75;;;2.70;99.90;;;;;;5017594;28;20040;-76
2024/01/05 01:16:28;;;;;;;139.18;76.05;;;2.70;99.90;;;;;;5004895;28;20051;-76
2024/01/05 01:18:55;;;;;;;128.77;74.22;;;2.50;99.90;;;;;;5027356;28;20034;-75
2024/01/05 01:21:38;;;;;;;145.65;80.10;;;2.50;99.90;;;;;;5031507;28;20107;-76
2024/01/05 01:24:06;;;;;;;136.65;79.10;;;2.50;99.90;;;;;;5009985;28;20025;-76
2024/01/05 01:26:34;;;;;;;148.70;85.90;;;2.40;99.90;;;;;;5032788;28;20042;-76
2024/01/05 01:29:03;;;;;;;161.05;89.88;;;2.40;99.90;;;;;;5032677;28;20052;-76
2024/01/05 01:31:31;;;;;;;153.80;87.65;;;2.40;99.90;;;;;;5018602;28;20053;-76
2024/01/05 01:33:58;;;;;;;156.50;87.63;;;2.50;99.90;;;;;;5017741;28;20050;-75
2024/01/05 01:36:28;;;;;;;124.75;70.82;;;2.50;99.90;;;;;;5007039;28;20044;-77
2024/01/05 01:38:56;;;;;;;108.05;59.67;;;2.50;99.90;;;;;;5018652;28;20110;-76
2024/01/05 01:41:23;;;;;;;98.75;54.55;;;2.50;99.90;;;;;;5010814;28;20022;-77
2024/01/05 01:44:05;;;;;;;90.80;50.25;;;2.50;99.90;;;;;;5029407;28;20042;-77
2024/01/05 01:46:33;;;;;;;86.18;49.55;;;2.50;99.90;;;;;;5001246;28;20449;-77
2024/01/05 01:49:02;;;;;;;110.60;61.90;;;2.50;99.90;;;;;;4991192;28;20053;-76
2024/01/05 01:51:31;;;;;;;150.90;78.07;;;2.50;99.90;;;;;;5003678;28;20077;-74
2024/01/05 01:53:59;;;;;;;145.90;74.38;;;2.50;99.90;;;;;;4983557;28;20061;-75
2024/01/05 01:56:27;;;;;;;144.05;71.80;;;2.40;99.90;;;;;;5002988;28;20045;-75
2024/01/05 01:58:54;;;;;;;144.60;76.60;;;2.30;99.90;;;;;;4988173;28;20042;-75
2024/01/05 02:01:24;;;;;;;138.07;72.60;;;2.30;99.90;;;;;;4987431;28;20046;-73
2024/01/05 02:03:53;;;;;;;133.70;69.45;;;2.30;99.90;;;;;;4986510;28;20053;-74
2024/01/05 02:06:24;;;;;;;135.75;71.25;;;2.30;99.90;;;;;;4985687;28;20049;-75
2024/01/05 02:08:54;;;;;;;125.43;68.70;;;2.20;99.90;;;;;;4984452;28;20479;-75
2024/01/05 02:11:21;;;;;;;123.30;65.40;;;2.20;99.90;;;;;;4988848;28;20453;-76
2024/01/05 02:13:53;;;;;;;117.35;61.88;;;2.20;99.90;;;;;;4994373;28;20050;-76
2024/01/05 02:16:21;;;;;;;122.35;67.07;;;2.20;99.90;;;;;;4983967;28;20089;-77
2024/01/05 02:18:53;;;;;;;112.20;61.95;;;2.30;99.90;;;;;;4982871;28;20059;-76
2024/01/05 02:21:25;;;;;;;117.78;63.53;;;2.20;99.90;;;;;;4981900;28;20101;-75
2024/01/05 02:23:56;;;;;;;96.85;53.33;;;2.20;99.90;;;;;;4985941;28;20056;-75
2024/01/05 02:26:34;;;;;;;91.28;52.30;;;2.10;99.90;;;;;;4980886;28;20042;-74
2024/01/05 02:29:04;;;;;;;96.30;53.72;;;2.20;99.90;;;;;;4991224;28;20050;-75
2024/01/05 02:31:32;;;;;;;94.75;53.05;;;2.10;99.90;;;;;;4989743;28;20050;-74
2024/01/05 02:34:06;;;;;;;91.65;51.13;;;2.00;99.90;;;;;;4984320;28;20045;-75
2024/01/05 02:36:36;;;;;;;86.32;48.67;;;2.10;99.90;;;;;;4987325;28;20100;-75
2024/01/05 02:39:12;;;;;;;96.20;52.20;;;2.10;99.90;;;;;;5011683;28;20060;-77
2024/01/05 02:41:46;;;;;;;74.75;44.40;;;2.00;99.90;;;;;;5006728;28;20054;-77
2024/01/05 02:44:20;;;;;;;74.30;43.45;;;2.00;99.90;;;;;;4976690;28;20053;-76
2024/01/05 02:46:50;;;;;;;90.53;49.63;;;2.00;99.90;;;;;;4970970;28;20126;-77
2024/01/05 02:49:20;;;;;;;92.45;52.55;;;2.00;99.90;;;;;;4991336;28;20038;-77
2024/01/05 02:51:52;;;;;;;96.32;50.92;;;2.00;99.90;;;;;;4985924;28;20038;-76
2024/01/05 02:54:30;;;;;;;119.55;61.63;;;2.00;99.90;;;;;;4973554;28;20042;-75
2024/01/05 02:57:05;;;;;;;119.75;59.15;;;2.00;99.90;;;;;;4970398;28;20046;-78
2024/01/05 02:59:35;;;;;;;99.63;51.45;;;1.90;99.90;;;;;;4981108;28;20524;-76
2024/01/05 03:02:13;;;;;;;105.70;49.60;;;2.00;99.90;;;;;;4966504;28;20039;-76
2024/01/05 03:04:44;;;;;;;109.43;57.53;;;2.00;99.90;;;;;;4968499;28;20061;-76
2024/01/05 03:07:15;;;;;;;109.65;54.70;;;1.90;99.90;;;;;;4982233;28;20031;-77
2024/01/05 03:10:07;;;;;;;84.90;47.33;;;1.90;99.90;;;;;;4967380;28;20046;-77
2024/01/05 03:12:39;;;;;;;90.38;48.58;;;1.90;99.90;;;;;;4971572;28;20526;-77
2024/01/05 03:15:13;;;;;;;94.45;48.75;;;1.90;99.90;;;;;;4976695;28;20047;-77
2024/01/05 03:17:46;;;;;;;82.13;44.72;;;1.80;99.90;;;;;;4984171;28;20046;-79
2024/01/05 03:20:16;;;;;;;94.25;48.30;;;1.80;99.90;;;;;;4977903;28;20122;-78
2024/01/05 03:22:52;;;;;;;76.20;43.83;;;1.80;99.90;;;;;;4965307;28;20060;-76
2024/01/05 03:25:23;;;;;;;84.13;45.60;;;1.80;99.90;;;;;;4965210;28;20043;-76
2024/01/05 03:27:51;;;;;;;91.55;47.65;;;1.70;99.90;;;;;;4973363;28;20042;-76
2024/01/05 03:30:22;;;;;;;87.75;47.80;;;1.70;99.90;;;;;;4964002;28;20081;-77
2024/01/05 03:32:53;;;;;;;80.55;43.42;;;1.60;99.90;;;;;;4968043;28;20471;-76
2024/01/05 03:35:21;;;;;;;87.38;47.80;;;1.70;99.90;;;;;;4968363;28;20042;-76
2024/01/05 03:37:51;;;;;;;99.15;51.42;;;1.70;99.90;;;;;;4975852;28;20046;-77
2024/01/05 03:40:25;;;;;;;94.28;48.15;;;1.70;99.90;;;;;;4999586;28;20046;-77
2024/01/05 03:42:54;;;;;;;103.57;50.17;;;1.70;99.90;;;;;;5000420;28;20053;-76
2024/01/05 03:45:21;;;;;;;98.05;51.20;;;1.70;99.90;;;;;;4992789;28;20042;-76
2024/01/05 03:47:57;;;;;;;103.32;53.40;;;1.70;99.90;;;;;;4978138;28;20039;-74
2024/01/05 03:50:32;;;;;;;90.45;47.65;;;1.70;99.90;;;;;;4970786;28;20110;-74
2024/01/05 03:53:05;;;;;;;77.50;42.25;;;1.70;99.90;;;;;;4970698;28;20053;-75
2024/01/05 03:55:35;;;;;;;72.75;41.92;;;1.60;99.90;;;;;;4973369;28;20031;-76
2024/01/05 03:58:03;;;;;;;75.97;41.00;;;1.60;99.90;;;;;;4993017;28;20050;-75
2024/01/05 04:00:33;;;;;;;80.97;42.95;;;1.60;99.90;;;;;;4987179;28;20070;-74
2024/01/05 04:03:00;;;;;;;79.15;42.22;;;1.60;99.90;;;;;;4971834;28;20057;-75
2024/01/05 04:05:29;;;;;;;75.18;41.92;;;1.60;99.90;;;;;;4972896;28;20039;-75
2024/01/05 04:07:57;;;;;;;65.53;38.10;;;1.60;99.90;;;;;;4966491;28;20051;-74
2024/01/05 04:10:28;;;;;;;63.08;36.05;;;1.60;99.90;;;;;;4968429;28;20078;-75
2024/01/05 04:13:04;;;;;;;67.65;37.53;;;1.60;99.90;;;;;;4964385;28;20179;-75
2024/01/05 04:15:38;;;;;;;72.55;39.47;;;1.60;99.90;;;;;;4972097;28;20409;-78
2024/01/05 04:18:09;;;;;;;67.60;38.22;;;1.50;99.90;;;;;;4979938;28;20057;-77
2024/01/05 04:20:37;;;;;;;62.72;37.05;;;1.60;99.90;;;;;;4990916;28;20408;-77
2024/01/05 04:23:07;;;;;;;66.35;37.90;;;1.60;99.90;;;;;;4974501;28;20057;-74
2024/01/05 04:25:38;;;;;;;70.03;39.95;;;1.60;99.90;;;;;;4964553;28;20046;-75
2024/01/05 04:28:10;;;;;;;63.50;38.33;;;1.60;99.90;;;;;;4974628;28;20049;-78
2024/01/05 04:30:52;;;;;;;65.65;39.22;;;1.40;99.90;;;;;;4993694;28;20054;-77
2024/01/05 04:33:21;;;;;;;64.85;34.80;;;1.30;99.90;;;;;;5004876;28;20065;-77
2024/01/05 04:35:51;;;;;;;59.25;33.10;;;1.50;99.90;;;;;;4984779;28;20114;-77
2024/01/05 04:38:30;;;;;;;61.30;35.17;;;1.50;99.90;;;;;;4976281;28;20638;-78
2024/01/05 04:41:03;;;;;;;60.53;34.72;;;1.50;99.90;;;;;;4973029;28;20057;-77
2024/01/05 04:43:51;;;;;;;57.15;33.47;;;1.40;99.90;;;;;;4995184;28;20050;-75
2024/01/05 04:46:33;;;;;;;63.42;35.25;;;1.40;99.90;;;;;;4976288;28;20050;-76
2024/01/05 04:49:05;;;;;;;60.22;35.25;;;1.40;99.90;;;;;;4975201;28;20074;-76
2024/01/05 04:51:35;;;;;;;61.47;34.60;;;1.20;99.90;;;;;;4981236;28;20035;-76
2024/01/05 04:54:07;;;;;;;60.20;33.05;;;1.20;99.90;;;;;;4990518;28;20043;-77
2024/01/05 04:56:37;;;;;;;62.70;34.30;;;1.20;99.90;;;;;;5015069;28;20070;-76
2024/01/05 04:59:06;;;;;;;57.92;34.70;;;1.30;99.90;;;;;;4988112;28;20065;-75
2024/01/05 05:01:40;;;;;;;62.83;33.55;;;1.40;99.90;;;;;;4988515;28;20052;-76
2024/01/05 05:07:01;;;;;;;68.07;38.53;;;1.30;99.90;;;;;;5010645;28;20077;-78
2024/01/05 05:09:49;;;;;;;73.53;40.80;;;1.30;99.90;;;;;;4984545;28;20058;-78
2024/01/05 05:16:18;;;;;;;67.00;39.85;;;1.30;99.90;;;;;;4935410;29;20066;-79
2024/01/05 05:19:07;;;;;;;63.28;37.63;;;1.20;99.90;;;;;;5005484;28;20073;-79
2024/01/05 05:48:21;;;;;;;74.35;42.05;;;1.20;90.50;;;;;;4951764;23;20069;-86
2024/01/05 05:50:48;;;;;;;80.15;41.20;;;1.10;99.90;;;;;;5009623;28;20405;-85
2024/01/05 05:53:16;;;;;;;73.20;40.20;;;1.00;99.90;;;;;;5011066;28;20048;-83
2024/01/05 05:55:43;;;;;;;67.93;37.58;;;1.10;99.90;;;;;;5010246;28;20113;-84
2024/01/05 05:58:10;;;;;;;67.43;38.00;;;1.20;99.90;;;;;;4991727;28;20401;-85
2024/01/05 06:00:38;;;;;;;81.20;46.60;;;1.30;99.90;;;;;;5009822;28;20041;-84
2024/01/05 06:03:06;;;;;;;101.13;61.78;;;1.30;99.90;;;;;;5010040;28;20062;-85
2024/01/05 06:05:36;;;;;;;86.07;50.17;;;1.30;99.90;;;;;;5007821;28;20116;-84
2024/01/05 06:08:04;;;;;;;78.18;46.72;;;1.20;99.90;;;;;;4991560;28;20128;-84
2024/01/05 06:10:31;;;;;;;86.82;49.60;;;1.10;99.90;;;;;;5009712;28;20125;-83
2024/01/05 06:12:59;;;;;;;93.32;52.92;;;1.30;99.90;;;;;;4991906;28;20478;-81
2024/01/05 06:15:26;;;;;;;144.13;75.70;;;1.30;99.90;;;;;;5009188;28;20046;-82
2024/01/05 06:17:53;;;;;;;175.70;93.15;;;1.40;99.90;;;;;;5007060;28;20038;-82
2024/01/05 06:20:21;;;;;;;125.13;68.93;;;1.50;99.90;;;;;;5009448;28;20559;-83
2024/01/05 06:22:50;;;;;;;116.97;61.33;;;1.50;91.30;;;;;;4991628;28;20069;-83
2024/01/05 06:25:17;;;;;;;112.35;63.38;;;1.50;1.00;;;;;;5008676;28;20524;-83
2024/01/05 06:27:45;;;;;;;105.65;57.63;;;1.50;1.00;;;;;;4991404;28;20481;-83
2024/01/05 06:30:13;;;;;;;94.28;52.63;;;1.40;1.00;;;;;;4991462;28;20056;-81
2024/01/05 06:32:40;;;;;;;105.45;58.45;;;1.40;1.00;;;;;;4991466;28;20408;-84
2024/01/05 06:35:08;;;;;;;116.10;62.08;;;1.50;65.10;;;;;;5009919;28;20050;-83
2024/01/05 06:37:36;;;;;;;130.30;70.82;;;1.50;99.90;;;;;;5008513;28;20041;-84
2024/01/05 06:40:06;;;;;;;141.05;78.57;;;1.50;92.80;;;;;;4992158;28;20046;-84
2024/01/05 06:42:33;;;;;;;142.38;78.85;;;1.30;1.00;;;;;;5009136;28;20045;-82
2024/01/05 06:45:01;;;;;;;160.38;87.50;;;1.40;66.40;;;;;;5009740;28;20046;-81
2024/01/05 06:47:28;;;;;;;152.70;83.55;;;1.50;99.90;;;;;;5008513;28;20081;-80
2024/01/05 06:49:56;;;;;;;114.75;64.88;;;1.60;99.90;;;;;;5008802;28;20030;-83
2024/01/05 06:52:23;;;;;;;118.10;65.15;;;1.60;2.70;;;;;;5009577;28;20046;-81
2024/01/05 06:54:51;;;;;;;118.15;63.72;;;1.70;2.20;;;;;;5008037;28;20064;-82
2024/01/05 06:57:19;;;;;;;137.95;72.65;;;1.70;1.00;;;;;;5008976;28;20454;-83
2024/01/05 06:59:47;;;;;;;139.10;78.10;;;1.90;1.00;;;;;;5009949;28;20228;-84
2024/01/05 07:02:14;;;;;;;136.30;75.20;;;1.90;1.00;;;;;;4992849;28;20389;-83
2024/01/05 07:04:42;;;;;;;125.30;67.07;;;2.00;1.00;;;;;;4994165;28;20141;-84
2024/01/05 07:07:09;;;;;;;120.93;69.75;;;2.10;1.00;;;;;;5023991;28;20037;-84
2024/01/05 07:09:37;;;;;;;137.05;78.43;;;2.10;1.00;;;;;;5033312;28;20026;-85
2024/01/05 07:12:05;;;;;;;133.55;79.65;;;2.20;1.00;;;;;;5027471;28;20052;-85
2024/01/05 07:14:33;;;;;;;148.43;83.15;;;2.20;99.90;;;;;;5014314;28;20045;-84
2024/01/05 07:17:01;;;;;;;147.93;82.72;;;2.30;39.60;;;;;;5013392;28;20113;-84
2024/01/05 07:19:28;;;;;;;152.05;83.47;;;2.30;1.00;;;;;;5012206;28;20034;-83
2024/01/05 07:21:56;;;;;;;167.15;92.65;;;2.30;1.00;;;;;;5012358;28;20045;-85
2024/01/05 07:24:23;;;;;;;148.73;86.72;;;2.40;1.00;;;;;;5013033;28;20092;-84
2024/01/05 07:26:51;;;;;;;150.85;89.82;;;2.40;1.00;;;;;;4995424;28;20568;-83
2024/01/05 07:29:18;;;;;;;137.95;81.53;;;2.50;1.00;;;;;;4995653;28;20041;-84
2024/01/05 07:31:47;;;;;;;171.32;105.18;;;2.50;1.00;;;;;;5013243;28;20068;-84
2024/01/05 07:34:14;;;;;;;120.93;74.72;;;2.50;1.00;;;;;;5013127;28;20494;-83
2024/01/05 07:36:43;;;;;;;138.43;80.82;;;2.60;1.00;;;;;;4995075;28;20046;-83
2024/01/05 07:39:11;;;;;;;131.63;75.60;;;2.70;1.00;;;;;;5011836;28;20041;-83
2024/01/05 07:41:39;;;;;;;123.85;69.07;;;2.80;1.00;;;;;;4995397;28;20045;-84
2024/01/05 07:44:06;;;;;;;125.28;75.07;;;2.90;1.00;;;;;;5012426;28;20046;-84
2024/01/05 07:46:33;;;;;;;151.23;86.68;;;3.00;1.00;;;;;;5012249;28;20624;-85
2024/01/05 07:49:02;;;;;;;159.25;95.22;;;3.10;99.90;;;;;;5012031;28;20501;-84
2024/01/05 07:51:29;;;;;;;187.73;104.93;;;3.10;1.00;;;;;;5014321;28;20042;-85
2024/01/05 07:53:57;;;;;;;177.57;103.70;;;3.30;1.00;;;;;;5014476;28;20038;-85
2024/01/05 07:56:24;;;;;;;189.23;106.35;;;3.50;99.90;;;;;;5006733;28;20041;-84
2024/01/05 07:58:52;;;;;;;175.63;99.43;;;3.70;1.00;;;;;;5012492;28;20049;-83
2024/01/05 08:01:20;;;;;;;178.35;95.95;;;3.70;99.90;;;;;;5018318;28;20105;-87
2024/01/05 08:03:49;;;;;;;175.10;98.60;;;3.70;99.90;;;;;;5004408;28;20420;-84
2024/01/05 08:06:19;;;;;;;165.18;90.75;;;3.90;99.90;;;;;;5016100;28;20052;-84
2024/01/05 08:08:46;;;;;;;172.43;95.03;;;4.00;99.90;;;;;;5013332;28;20050;-84
2024/01/05 08:11:14;;;;;;;170.10;96.90;;;4.20;1.00;;;;;;5011617;28;20404;-84
2024/01/05 08:13:42;;;;;;;174.57;95.18;;;4.30;1.00;;;;;;5013236;28;20042;-84
2024/01/05 08:16:10;;;;;;;172.63;98.03;;;4.40;1.00;;;;;;5012351;28;20052;-84
2024/01/05 08:18:38;;;;;;;176.75;94.80;;;4.40;99.90;;;;;;5012385;28;20473;-84
2024/01/05 08:21:05;;;;;;;171.63;95.47;;;4.40;99.90;;;;;;5010782;28;20137;-84
2024/01/05 08:23:34;;;;;;;186.98;106.88;;;4.60;99.90;;;;;;4994076;28;20073;-83
2024/01/05 08:26:03;;;;;;;206.95;112.80;;;4.60;1.00;;;;;;4994494;28;20061;-84
2024/01/05 08:28:31;;;;;;;187.52;105.07;;;4.80;99.90;;;;;;4994062;28;20108;-85
2024/01/05 08:30:59;;;;;;;192.77;109.07;;;4.80;1.00;;;;;;4994882;28;20045;-86
2024/01/05 08:33:26;;;;;;;193.00;110.68;;;4.90;1.00;;;;;;4994926;28;20046;-85
2024/01/05 08:35:54;;;;;;;190.82;111.85;;;4.80;99.90;;;;;;5013092;28;20052;-85
2024/01/05 08:38:21;;;;;;;214.25;129.80;;;4.80;1.00;;;;;;5018037;28;20034;-84
2024/01/05 08:40:52;;;;;;;191.70;111.32;;;4.80;1.00;;;;;;5011819;28;20045;-85
2024/01/05 08:43:20;;;;;;;257.98;153.15;;;4.80;99.90;;;;;;5019234;28;20050;-85
2024/01/05 08:45:48;;;;;;;217.85;129.40;;;4.90;1.00;;;;;;5006504;28;20054;-84
2024/01/05 08:48:15;;;;;;;180.68;109.25;;;4.90;1.00;;;;;;5019979;28;20249;-88
2024/01/05 08:50:43;;;;;;;181.55;111.53;;;5.00;99.90;;;;;;5022263;28;20053;-88
2024/01/05 08:53:10;;;;;;;200.85;114.22;;;5.10;99.90;;;;;;5014385;28;20045;-85
2024/01/05 08:55:38;;;;;;;223.40;134.20;;;5.20;99.90;;;;;;5011829;28;20584;-86
2024/01/05 08:58:07;;;;;;;244.98;140.25;;;5.30;1.00;;;;;;5011295;28;20054;-86
2024/01/05 09:00:34;;;;;;;194.45;114.28;;;5.30;1.00;;;;;;4994108;28;20089;-85
2024/01/05 09:03:03;;;;;;;207.02;118.90;;;5.50;1.00;;;;;;5010871;28;20418;-86
2024/01/05 09:05:31;;;;;;;205.75;112.78;;;5.50;99.90;;;;;;4994000;28;20151;-86
2024/01/05 09:07:58;;;;;;;190.90;109.70;;;5.60;99.90;;;;;;4994473;28;20045;-87
2024/01/05 09:10:26;;;;;;;162.48;94.63;;;5.70;1.00;;;;;;4993571;28;20125;-87
2024/01/05 09:12:54;;;;;;;181.63;106.75;;;5.90;1.00;;;;;;4991036;28;20050;-85
2024/01/05 09:15:23;;;;;;;197.38;115.68;;;6.00;99.90;;;;;;4994520;28;20082;-87
2024/01/05 09:17:51;;;;;;;202.93;119.25;;;6.10;99.90;;;;;;4993245;28;20077;-88
2024/01/05 09:20:18;;;;;;;196.68;112.85;;;6.30;99.90;;;;;;5010292;28;20537;-88
2024/01/05 09:22:46;;;;;;;191.18;113.85;;;6.40;99.90;;;;;;5016095;28;20038;-88
2024/01/05 09:25:14;;;;;;;207.93;121.72;;;6.50;1.00;;;;;;5011914;28;20500;-88
2024/01/05 09:27:41;;;;;;;178.00;107.20;;;6.60;1.00;;;;;;4993729;28;20046;-88
2024/01/05 09:30:09;;;;;;;192.68;113.70;;;6.60;1.00;;;;;;4993248;28;20041;-86
2024/01/05 09:32:38;;;;;;;185.32;110.88;;;6.60;99.90;;;;;;4993618;28;20041;-88
2024/01/05 09:35:08;;;;;;;201.82;116.88;;;6.70;99.90;;;;;;5010534;28;20053;-87
2024/01/05 09:37:36;;;;;;;195.80;116.35;;;6.90;99.90;;;;;;4993559;28;20127;-87
2024/01/05 09:40:04;;;;;;;191.00;114.63;;;7.00;1.00;;;;;;5011362;28;20046;-86
2024/01/05 09:42:33;;;;;;;186.63;113.03;;;7.00;1.00;;;;;;4993477;28;20410;-87
2024/01/05 09:45:03;;;;;;;179.23;110.85;;;7.20;1.00;;;;;;5009794;28;20048;-85
2024/01/05 09:47:31;;;;;;;165.73;103.10;;;7.30;1.00;;;;;;5010366;28;20137;-88
2024/01/05 09:50:02;;;;;;;156.27;94.82;;;7.50;1.00;;;;;;5011146;28;20090;-86
2024/01/05 09:52:29;;;;;;;164.85;97.07;;;7.60;1.00;;;;;;4991889;28;20085;-87
2024/01/05 09:54:57;;;;;;;195.60;116.57;;;7.80;99.90;;;;;;5011110;28;20045;-86
2024/01/05 09:57:27;;;;;;;207.20;121.28;;;8.00;1.00;;;;;;5000863;28;20056;-88
2024/01/05 09:59:56;;;;;;;214.32;123.63;;;8.10;81.70;;;;;;4990468;28;20054;-87
2024/01/05 10:02:31;;;;;;;208.77;125.70;;;8.30;99.90;;;;;;5010475;28;20104;-83
2024/01/05 10:05:10;;;;;;;190.43;113.22;;;8.50;1.00;;;;;;5011044;28;20048;-84
2024/01/05 10:07:43;;;;;;;179.82;110.38;;;8.70;1.00;;;;;;4986980;28;20537;-82
2024/01/05 10:10:14;;;;;;;178.48;106.85;;;8.80;1.00;;;;;;5009569;28;20037;-83
2024/01/05 10:12:41;;;;;;;168.32;100.22;;;8.90;1.00;;;;;;5010633;28;20081;-87
2024/01/05 10:15:12;;;;;;;163.77;102.60;;;8.90;99.90;;;;;;5011341;28;20069;-88
2024/01/05 10:17:40;;;;;;;160.80;101.40;;;9.00;99.90;;;;;;4993138;28;20045;-88
2024/01/05 10:20:17;;;;;;;157.52;97.40;;;9.10;99.90;;;;;;4992251;28;20042;-87
2024/01/05 10:22:46;;;;;;;149.30;95.57;;;9.30;99.90;;;;;;5012251;28;20045;-88
2024/01/05 10:25:18;;;;;;;157.23;101.55;;;9.40;99.90;;;;;;4993515;28;20073;-87
2024/01/05 10:27:49;;;;;;;144.38;94.57;;;9.60;1.00;;;;;;4994181;28;20046;-89
2024/01/05 10:30:29;;;;;;;151.80;95.82;;;9.80;1.00;;;;;;4994079;28;20046;-87
2024/01/05 10:33:07;;;;;;;152.52;100.03;;;9.90;1.00;;;;;;5011568;28;20045;-84
2024/01/05 10:35:36;;;;;;;160.90;100.72;;;10.00;1.00;;;;;;5009359;28;20046;-79
2024/01/05 10:38:09;;;;;;;152.20;98.78;;;10.10;1.00;;;;;;5008392;28;20409;-80
2024/01/05 10:40:36;;;;;;;152.65;98.30;;;10.30;1.00;;;;;;4991179;28;20064;-78
2024/01/05 10:43:18;;;;;;;151.98;96.82;;;10.40;1.00;;;;;;5007633;28;20046;-88
2024/01/05 10:45:53;;;;;;;159.75;102.40;;;10.50;1.00;;;;;;4998518;28;20060;-83
2024/01/05 10:48:22;;;;;;;154.93;100.93;;;10.70;99.90;;;;;;4998160;28;20058;-81
2024/01/05 10:50:51;;;;;;;157.02;98.55;;;10.80;99.90;;;;;;5010932;28;20030;-85
2024/01/05 10:53:20;;;;;;;152.68;94.80;;;10.80;99.90;;;;;;5001840;28;20570;-78
2024/01/05 10:55:48;;;;;;;154.88;98.40;;;11.00;99.90;;;;;;5009820;28;20065;-80
2024/01/05 10:58:17;;;;;;;139.00;89.80;;;11.10;99.90;;;;;;5051128;23;20241;-87
2024/01/05 11:00:48;;;;;;;109.63;73.78;;;11.10;99.90;;;;;;5022728;28;20038;-81
2024/01/05 11:03:19;;;;;;;134.95;85.07;;;11.20;99.90;;;;;;5018431;28;20072;-79
2024/01/05 11:05:47;;;;;;;131.50;85.10;;;11.20;99.90;;;;;;4980699;28;20052;-88
2024/01/05 11:08:31;;;;;;;139.15;91.65;;;11.30;99.90;;;;;;4998089;28;20046;-83
2024/01/05 11:11:11;;;;;;;144.95;93.03;;;11.30;99.90;;;;;;4982439;28;20054;-86
2024/01/05 11:13:55;;;;;;;133.90;84.35;;;11.30;99.90;;;;;;4982326;28;20042;-86
2024/01/05 11:17:00;;;;;;;116.18;75.30;;;11.40;99.90;;;;;;4999432;28;20046;-83
2024/01/05 11:19:53;;;;;;;131.05;86.93;;;11.50;99.90;;;;;;4981002;28;20216;-76
2024/01/05 11:22:25;;;;;;;152.25;99.75;;;11.80;99.90;;;;;;4999923;28;20058;-78
2024/01/05 11:24:55;;;;;;;165.50;114.60;;;11.90;99.90;;;;;;5002262;28;20038;-77
2024/01/05 11:27:29;;;;;;;188.32;119.75;;;12.10;99.90;;;;;;5000945;28;20090;-78
2024/01/05 11:29:57;;;;;;;175.00;119.95;;;12.20;99.90;;;;;;4998443;28;20066;-78
2024/01/05 11:32:39;;;;;;;192.18;127.82;;;12.10;99.90;;;;;;4994203;28;20038;-77
2024/01/05 11:35:44;;;;;;;189.23;123.05;;;12.20;1.00;;;;;;4990113;28;20548;-78
2024/01/05 11:38:32;;;;;;;202.38;131.05;;;12.20;1.00;;;;;;4979047;28;20042;-77
2024/01/05 11:41:15;;;;;;;200.98;128.32;;;12.20;1.00;;;;;;4990195;28;20104;-79
2024/01/05 11:43:43;;;;;;;204.50;128.82;;;12.10;1.00;;;;;;4994850;28;20101;-78
2024/01/05 11:46:10;;;;;;;195.43;125.03;;;12.30;1.00;;;;;;4998445;28;20045;-79
2024/01/05 11:48:55;;;;;;;187.80;123.45;;;12.40;99.90;;;;;;5001290;28;20084;-89
2024/01/05 11:51:23;;;;;;;184.68;122.07;;;12.50;99.90;;;;;;4998566;28;20054;-76
2024/01/05 11:53:50;;;;;;;187.73;117.93;;;12.70;99.90;;;;;;5000329;28;20288;-77
2024/01/05 11:56:21;;;;;;;160.32;106.90;;;12.80;99.90;;;;;;5003283;28;20520;-75
2024/01/05 11:58:49;;;;;;;167.88;110.93;;;12.90;99.50;;;;;;4998037;28;20708;-78
2024/01/05 12:01:17;;;;;;;166.27;109.22;;;12.90;55.00;;;;;;4999591;28;20133;-78
2024/01/05 12:03:44;;;;;;;154.52;106.15;;;12.90;73.90;;;;;;5000670;28;20058;-77
2024/01/05 12:06:14;;;;;;;146.90;100.50;;;12.90;58.50;;;;;;4996861;28;20045;-76
2024/01/05 12:08:42;;;;;;;155.85;99.72;;;13.00;13.30;;;;;;4999516;28;20099;-78
2024/01/05 12:11:11;;;;;;;147.57;97.25;;;13.00;1.00;;;;;;4983036;28;20038;-77
2024/01/05 12:13:40;;;;;;;121.80;82.50;;;13.10;1.00;;;;;;5003045;28;20058;-78
2024/01/05 12:16:09;;;;;;;152.40;98.82;;;13.00;1.00;;;;;;4999713;28;20084;-80
2024/01/05 12:18:44;;;;;;;163.55;106.88;;;13.10;1.00;;;;;;5002083;28;20561;-77
2024/01/05 12:21:14;;;;;;;152.37;104.70;;;13.10;1.00;;;;;;5001565;28;20456;-79
2024/01/05 12:23:50;;;;;;;167.70;108.88;;;13.20;1.00;;;;;;5002271;28;20291;-79
2024/01/05 12:26:18;;;;;;;161.52;108.45;;;13.30;1.00;;;;;;5001736;28;20141;-77
2024/01/05 12:28:48;;;;;;;152.90;105.82;;;13.30;1.00;;;;;;4991283;28;20500;-78
2024/01/05 12:31:16;;;;;;;150.93;103.55;;;13.40;1.00;;;;;;5001700;28;20144;-79
2024/01/05 12:33:44;;;;;;;167.43;107.15;;;13.40;1.00;;;;;;5002578;28;20489;-78
2024/01/05 12:36:23;;;;;;;169.30;106.65;;;13.50;1.00;;;;;;4999899;28;20050;-79
2024/01/05 12:38:50;;;;;;;159.82;106.18;;;13.50;1.00;;;;;;4999986;28;20049;-76
2024/01/05 12:41:21;;;;;;;171.82;106.65;;;13.50;1.00;;;;;;5001684;28;20052;-78
2024/01/05 12:43:51;;;;;;;171.90;107.93;;;13.60;1.00;;;;;;5001515;28;20034;-76
2024/01/05 12:46:19;;;;;;;161.90;106.05;;;13.60;1.00;;;;;;4999933;28;20125;-79
2024/01/05 12:48:47;;;;;;;166.48;105.70;;;13.60;1.00;;;;;;5001552;28;20038;-78
2024/01/05 12:51:19;;;;;;;165.38;107.70;;;13.60;1.00;;;;;;4999771;28;20045;-77
2024/01/05 12:53:49;;;;;;;165.90;110.78;;;13.60;1.00;;;;;;4999545;28;20053;-78
2024/01/05 12:56:18;;;;;;;170.32;110.82;;;13.60;1.00;;;;;;5000757;28;20525;-77
2024/01/05 12:59:02;;;;;;;179.32;119.40;;;13.60;1.00;;;;;;4984947;28;20078;-79
2024/01/05 13:01:32;;;;;;;193.35;121.38;;;13.60;1.00;;;;;;5003226;28;20045;-76
2024/01/05 13:04:00;;;;;;;195.10;126.28;;;13.60;1.00;;;;;;4999886;28;20042;-78
2024/01/05 13:06:33;;;;;;;185.48;124.03;;;13.60;1.00;;;;;;5001056;28;20030;-78
2024/01/05 13:09:01;;;;;;;204.45;126.93;;;13.60;1.00;;;;;;4991453;28;20056;-84
2024/01/05 13:11:36;;;;;;;211.18;129.65;;;13.60;1.00;;;;;;4989948;28;20141;-82
2024/01/05 13:14:34;;;;;;;196.95;129.90;;;13.60;1.00;;;;;;5001469;28;20073;-83
2024/01/05 13:23:23;;;;;;;227.23;138.07;;;13.80;1.00;;;;;;4998803;28;20145;-81
2024/01/05 13:25:50;;;;;;;212.32;136.13;;;13.80;1.00;;;;;;4982784;28;20049;-78